sensor_id;sensor_type;location;lat;lon;timestamp;temperature;humidity
15543;DHT22;7873;52.230;12.856;2022-11-15T00:00:04;26.60;42.40
15543;DHT22;7873;52.230;12.856;2022-11-15T00:02:32;26.70;42.30
15543;DHT22;7873;52.230;12.856;2022-11-15T00:04:58;26.70;42.20
15543;DHT22;7873;52.230;12.856;2022-11-15T00:07:25;26.80;41.80
15543;DHT22;7873;52.230;12.856;2022-11-15T00:09:52;26.80;41.80
15543;DHT22;7873;52.230;12.856;2022-11-15T00:12:18;26.70;41.80
15543;DHT22;7873;52.230;12.856;2022-11-15T00:14:46;26.70;42.10
15543;DHT22;7873;52.230;12.856;2022-11-15T00:17:13;26.60;42.20
15543;DHT22;7873;52.230;12.856;2022-11-15T00:19:40;26.70;42.00
15543;DHT22;7873;52.230;12.856;2022-11-15T00:22:06;26.60;42.20
15543;DHT22;7873;52.230;12.856;2022-11-15T00:24:33;26.60;42.40
15543;DHT22;7873;52.230;12.856;2022-11-15T00:27:00;26.40;42.70
15543;DHT22;7873;52.230;12.856;2022-11-15T00:29:26;26.30;43.00
15543;DHT22;7873;52.230;12.856;2022-11-15T00:31:54;26.20;43.20
15543;DHT22;7873;52.230;12.856;2022-11-15T00:34:21;26.20;43.30
15543;DHT22;7873;52.230;12.856;2022-11-15T00:36:48;26.10;43.40
15543;DHT22;7873;52.230;12.856;2022-11-15T00:39:14;26.20;43.30
15543;DHT22;7873;52.230;12.856;2022-11-15T00:41:41;26.20;43.30
15543;DHT22;7873;52.230;12.856;2022-11-15T00:44:08;26.10;43.40
15543;DHT22;7873;52.230;12.856;2022-11-15T00:46:34;26.10;43.50
15543;DHT22;7873;52.230;12.856;2022-11-15T00:49:03;26.00;43.50
15543;DHT22;7873;52.230;12.856;2022-11-15T00:51:29;26.10;43.70
15543;DHT22;7873;52.230;12.856;2022-11-15T00:53:56;26.00;43.70
15543;DHT22;7873;52.230;12.856;2022-11-15T00:56:23;26.00;43.80
15543;DHT22;7873;52.230;12.856;2022-11-15T00:58:49;25.90;43.80
15543;DHT22;7873;52.230;12.856;2022-11-15T01:01:16;25.90;44.00
15543;DHT22;7873;52.230;12.856;2022-11-15T01:03:43;25.90;44.00
15543;DHT22;7873;52.230;12.856;2022-11-15T01:06:11;25.90;44.00
15543;DHT22;7873;52.230;12.856;2022-11-15T01:08:38;25.80;44.00
15543;DHT22;7873;52.230;12.856;2022-11-15T01:11:06;25.80;44.00
15543;DHT22;7873;52.230;12.856;2022-11-15T01:13:34;25.80;44.10
15543;DHT22;7873;52.230;12.856;2022-11-15T01:16:05;25.80;44.10
15543;DHT22;7873;52.230;12.856;2022-11-15T01:18:33;25.80;44.00
15543;DHT22;7873;52.230;12.856;2022-11-15T01:21:00;25.80;43.90
15543;DHT22;7873;52.230;12.856;2022-11-15T01:23:32;25.90;44.00
15543;DHT22;7873;52.230;12.856;2022-11-15T01:25:59;25.80;44.20
15543;DHT22;7873;52.230;12.856;2022-11-15T01:28:29;25.70;44.30
15543;DHT22;7873;52.230;12.856;2022-11-15T01:30:57;25.70;44.40
15543;DHT22;7873;52.230;12.856;2022-11-15T01:33:24;25.60;44.30
15543;DHT22;7873;52.230;12.856;2022-11-15T01:35:51;25.60;44.40
15543;DHT22;7873;52.230;12.856;2022-11-15T01:38:17;25.70;44.30
15543;DHT22;7873;52.230;12.856;2022-11-15T01:40:45;25.60;45.20
15543;DHT22;7873;52.230;12.856;2022-11-15T01:43:19;25.60;44.20
15543;DHT22;7873;52.230;12.856;2022-11-15T01:45:50;25.80;44.00
15543;DHT22;7873;52.230;12.856;2022-11-15T01:48:22;25.80;44.00
15543;DHT22;7873;52.230;12.856;2022-11-15T01:50:51;25.90;43.80
15543;DHT22;7873;52.230;12.856;2022-11-15T01:53:19;25.80;43.90
15543;DHT22;7873;52.230;12.856;2022-11-15T01:55:51;25.90;43.70
15543;DHT22;7873;52.230;12.856;2022-11-15T01:58:18;25.90;43.70
15543;DHT22;7873;52.230;12.856;2022-11-15T02:00:45;25.90;43.60
15543;DHT22;7873;52.230;12.856;2022-11-15T02:03:13;25.80;44.00
15543;DHT22;7873;52.230;12.856;2022-11-15T02:05:39;25.80;43.70
15543;DHT22;7873;52.230;12.856;2022-11-15T02:08:08;25.70;43.90
15543;DHT22;7873;52.230;12.856;2022-11-15T02:10:45;25.70;44.00
15543;DHT22;7873;52.230;12.856;2022-11-15T02:13:13;25.70;44.00
15543;DHT22;7873;52.230;12.856;2022-11-15T02:15:43;25.70;44.10
15543;DHT22;7873;52.230;12.856;2022-11-15T02:18:15;25.60;44.00
15543;DHT22;7873;52.230;12.856;2022-11-15T02:20:54;25.60;44.20
15543;DHT22;7873;52.230;12.856;2022-11-15T02:23:41;25.60;44.30
15543;DHT22;7873;52.230;12.856;2022-11-15T02:26:30;25.50;44.50
15543;DHT22;7873;52.230;12.856;2022-11-15T02:29:15;25.50;44.60
15543;DHT22;7873;52.230;12.856;2022-11-15T02:31:57;25.50;44.60
15543;DHT22;7873;52.230;12.856;2022-11-15T02:34:33;25.50;44.50
15543;DHT22;7873;52.230;12.856;2022-11-15T02:37:07;25.50;44.20
15543;DHT22;7873;52.230;12.856;2022-11-15T02:39:41;25.50;44.20
15543;DHT22;7873;52.230;12.856;2022-11-15T02:42:14;25.50;44.00
15543;DHT22;7873;52.230;12.856;2022-11-15T02:45:19;25.60;44.20
15543;DHT22;7873;52.230;12.856;2022-11-15T02:47:51;25.50;44.20
15543;DHT22;7873;52.230;12.856;2022-11-15T02:50:24;25.60;43.90
15543;DHT22;7873;52.230;12.856;2022-11-15T02:52:53;25.60;44.20
15543;DHT22;7873;52.230;12.856;2022-11-15T02:55:27;25.60;44.20
15543;DHT22;7873;52.230;12.856;2022-11-15T02:58:01;25.60;44.00
15543;DHT22;7873;52.230;12.856;2022-11-15T03:00:50;25.50;44.20
15543;DHT22;7873;52.230;12.856;2022-11-15T03:03:30;25.60;44.30
15543;DHT22;7873;52.230;12.856;2022-11-15T03:06:09;25.50;44.20
15543;DHT22;7873;52.230;12.856;2022-11-15T03:08:45;25.50;44.20
15543;DHT22;7873;52.230;12.856;2022-11-15T03:11:20;25.50;44.20
15543;DHT22;7873;52.230;12.856;2022-11-15T03:13:51;25.50;44.30
15543;DHT22;7873;52.230;12.856;2022-11-15T03:16:24;25.50;44.30
15543;DHT22;7873;52.230;12.856;2022-11-15T03:18:56;25.40;44.30
15543;DHT22;7873;52.230;12.856;2022-11-15T03:21:27;25.40;44.60
15543;DHT22;7873;52.230;12.856;2022-11-15T03:23:56;25.40;44.30
15543;DHT22;7873;52.230;12.856;2022-11-15T03:26:27;25.30;44.60
15543;DHT22;7873;52.230;12.856;2022-11-15T03:28:56;25.30;44.60
15543;DHT22;7873;52.230;12.856;2022-11-15T03:31:28;25.20;44.80
15543;DHT22;7873;52.230;12.856;2022-11-15T03:34:17;25.20;44.70
15543;DHT22;7873;52.230;12.856;2022-11-15T03:36:47;25.20;44.90
15543;DHT22;7873;52.230;12.856;2022-11-15T03:39:17;25.20;45.00
15543;DHT22;7873;52.230;12.856;2022-11-15T03:41:47;25.20;44.80
15543;DHT22;7873;52.230;12.856;2022-11-15T03:44:16;25.20;44.60
15543;DHT22;7873;52.230;12.856;2022-11-15T03:46:54;25.20;44.70
15543;DHT22;7873;52.230;12.856;2022-11-15T03:49:30;25.20;44.90
15543;DHT22;7873;52.230;12.856;2022-11-15T03:51:59;25.20;45.20
15543;DHT22;7873;52.230;12.856;2022-11-15T03:54:26;25.10;45.00
15543;DHT22;7873;52.230;12.856;2022-11-15T03:56:53;25.10;45.20
15543;DHT22;7873;52.230;12.856;2022-11-15T03:59:21;25.00;45.30
15543;DHT22;7873;52.230;12.856;2022-11-15T04:01:48;25.00;45.30
15543;DHT22;7873;52.230;12.856;2022-11-15T04:04:15;25.10;45.20
15543;DHT22;7873;52.230;12.856;2022-11-15T04:06:43;25.00;45.20
15543;DHT22;7873;52.230;12.856;2022-11-15T04:09:09;25.10;45.50
15543;DHT22;7873;52.230;12.856;2022-11-15T04:11:36;25.00;45.20
15543;DHT22;7873;52.230;12.856;2022-11-15T04:14:03;25.10;45.30
15543;DHT22;7873;52.230;12.856;2022-11-15T04:16:29;25.20;45.20
15543;DHT22;7873;52.230;12.856;2022-11-15T04:18:56;25.20;45.60
15543;DHT22;7873;52.230;12.856;2022-11-15T04:21:37;25.20;45.20
15543;DHT22;7873;52.230;12.856;2022-11-15T04:24:22;25.30;44.20
15543;DHT22;7873;52.230;12.856;2022-11-15T04:26:49;25.30;44.90
15543;DHT22;7873;52.230;12.856;2022-11-15T04:29:16;25.30;44.00
15543;DHT22;7873;52.230;12.856;2022-11-15T04:32:00;25.30;44.60
15543;DHT22;7873;52.230;12.856;2022-11-15T04:34:28;25.30;44.30
15543;DHT22;7873;52.230;12.856;2022-11-15T04:36:54;25.30;43.90
15543;DHT22;7873;52.230;12.856;2022-11-15T04:39:42;25.30;44.60
15543;DHT22;7873;52.230;12.856;2022-11-15T04:42:09;25.40;44.30
15543;DHT22;7873;52.230;12.856;2022-11-15T04:44:36;25.20;44.30
15543;DHT22;7873;52.230;12.856;2022-11-15T04:47:03;25.20;44.20
15543;DHT22;7873;52.230;12.856;2022-11-15T04:49:31;25.20;44.10
15543;DHT22;7873;52.230;12.856;2022-11-15T04:51:57;25.10;44.50
15543;DHT22;7873;52.230;12.856;2022-11-15T04:54:24;25.20;44.80
15543;DHT22;7873;52.230;12.856;2022-11-15T04:56:52;25.20;44.60
15543;DHT22;7873;52.230;12.856;2022-11-15T04:59:19;25.20;45.00
15543;DHT22;7873;52.230;12.856;2022-11-15T05:01:45;25.30;45.20
15543;DHT22;7873;52.230;12.856;2022-11-15T05:04:12;25.20;44.70
15543;DHT22;7873;52.230;12.856;2022-11-15T05:06:44;25.00;44.10
15543;DHT22;7873;52.230;12.856;2022-11-15T05:09:11;25.00;43.90
15543;DHT22;7873;52.230;12.856;2022-11-15T05:11:39;24.90;44.20
15543;DHT22;7873;52.230;12.856;2022-11-15T05:14:07;24.90;44.10
15543;DHT22;7873;52.230;12.856;2022-11-15T05:16:34;24.90;44.10
15543;DHT22;7873;52.230;12.856;2022-11-15T05:19:01;24.80;44.80
15543;DHT22;7873;52.230;12.856;2022-11-15T05:21:27;24.80;45.10
15543;DHT22;7873;52.230;12.856;2022-11-15T05:23:54;24.90;44.70
15543;DHT22;7873;52.230;12.856;2022-11-15T05:26:21;25.00;43.30
15543;DHT22;7873;52.230;12.856;2022-11-15T05:28:51;25.00;43.00
15543;DHT22;7873;52.230;12.856;2022-11-15T05:31:20;24.90;43.40
15543;DHT22;7873;52.230;12.856;2022-11-15T05:33:48;24.90;43.60
15543;DHT22;7873;52.230;12.856;2022-11-15T05:36:17;24.90;43.50
15543;DHT22;7873;52.230;12.856;2022-11-15T05:38:48;24.70;43.90
15543;DHT22;7873;52.230;12.856;2022-11-15T05:41:15;24.60;42.80
15543;DHT22;7873;52.230;12.856;2022-11-15T05:43:45;24.40;43.00
15543;DHT22;7873;52.230;12.856;2022-11-15T05:46:13;24.30;43.40
15543;DHT22;7873;52.230;12.856;2022-11-15T05:48:41;24.20;43.70
15543;DHT22;7873;52.230;12.856;2022-11-15T05:51:14;24.20;44.10
15543;DHT22;7873;52.230;12.856;2022-11-15T05:53:43;24.20;44.40
15543;DHT22;7873;52.230;12.856;2022-11-15T05:56:11;24.20;44.60
15543;DHT22;7873;52.230;12.856;2022-11-15T05:58:38;24.20;44.80
15543;DHT22;7873;52.230;12.856;2022-11-15T06:01:05;24.10;44.90
15543;DHT22;7873;52.230;12.856;2022-11-15T06:03:32;24.10;44.90
15543;DHT22;7873;52.230;12.856;2022-11-15T06:06:00;24.20;44.90
15543;DHT22;7873;52.230;12.856;2022-11-15T06:08:27;24.10;44.90
15543;DHT22;7873;52.230;12.856;2022-11-15T06:10:53;24.10;44.90
15543;DHT22;7873;52.230;12.856;2022-11-15T06:13:20;24.10;44.90
15543;DHT22;7873;52.230;12.856;2022-11-15T06:15:47;24.10;44.90
15543;DHT22;7873;52.230;12.856;2022-11-15T06:18:13;24.10;45.10
15543;DHT22;7873;52.230;12.856;2022-11-15T06:20:40;24.00;45.10
15543;DHT22;7873;52.230;12.856;2022-11-15T06:23:08;24.00;45.20
15543;DHT22;7873;52.230;12.856;2022-11-15T06:25:35;24.00;45.30
15543;DHT22;7873;52.230;12.856;2022-11-15T06:28:01;23.90;45.30
15543;DHT22;7873;52.230;12.856;2022-11-15T06:30:28;23.90;45.40
15543;DHT22;7873;52.230;12.856;2022-11-15T06:32:59;23.90;45.30
15543;DHT22;7873;52.230;12.856;2022-11-15T06:35:27;23.90;45.40
15543;DHT22;7873;52.230;12.856;2022-11-15T06:37:54;23.80;45.50
15543;DHT22;7873;52.230;12.856;2022-11-15T06:40:22;23.80;45.40
15543;DHT22;7873;52.230;12.856;2022-11-15T06:42:49;23.80;45.40
15543;DHT22;7873;52.230;12.856;2022-11-15T06:45:16;23.70;45.40
15543;DHT22;7873;52.230;12.856;2022-11-15T06:47:44;23.70;45.50
15543;DHT22;7873;52.230;12.856;2022-11-15T06:50:11;23.70;45.50
15543;DHT22;7873;52.230;12.856;2022-11-15T06:52:38;23.70;45.50
15543;DHT22;7873;52.230;12.856;2022-11-15T06:55:05;23.70;45.50
15543;DHT22;7873;52.230;12.856;2022-11-15T06:57:34;23.60;45.50
15543;DHT22;7873;52.230;12.856;2022-11-15T07:00:02;23.60;45.70
15543;DHT22;7873;52.230;12.856;2022-11-15T07:02:29;23.60;45.70
15543;DHT22;7873;52.230;12.856;2022-11-15T07:04:56;23.50;45.70
15543;DHT22;7873;52.230;12.856;2022-11-15T07:07:23;23.50;45.70
15543;DHT22;7873;52.230;12.856;2022-11-15T07:09:50;23.50;45.80
15543;DHT22;7873;52.230;12.856;2022-11-15T07:12:17;23.50;45.80
15543;DHT22;7873;52.230;12.856;2022-11-15T07:14:45;23.40;45.80
15543;DHT22;7873;52.230;12.856;2022-11-15T07:17:11;23.40;45.90
15543;DHT22;7873;52.230;12.856;2022-11-15T07:19:38;23.50;45.90
15543;DHT22;7873;52.230;12.856;2022-11-15T07:22:05;23.50;45.70
15543;DHT22;7873;52.230;12.856;2022-11-15T07:24:31;23.40;45.70
15543;DHT22;7873;52.230;12.856;2022-11-15T07:26:58;23.40;45.90
15543;DHT22;7873;52.230;12.856;2022-11-15T07:29:25;23.40;46.00
15543;DHT22;7873;52.230;12.856;2022-11-15T07:31:53;23.30;45.90
15543;DHT22;7873;52.230;12.856;2022-11-15T07:34:20;23.40;45.90
15543;DHT22;7873;52.230;12.856;2022-11-15T07:36:46;23.40;45.90
15543;DHT22;7873;52.230;12.856;2022-11-15T07:39:13;23.30;46.00
15543;DHT22;7873;52.230;12.856;2022-11-15T07:41:40;23.30;46.00
15543;DHT22;7873;52.230;12.856;2022-11-15T07:44:08;23.30;46.00
15543;DHT22;7873;52.230;12.856;2022-11-15T07:46:35;23.30;46.00
15543;DHT22;7873;52.230;12.856;2022-11-15T07:49:03;23.30;46.00
15543;DHT22;7873;52.230;12.856;2022-11-15T07:51:30;23.20;46.10
15543;DHT22;7873;52.230;12.856;2022-11-15T07:53:56;23.20;46.10
15543;DHT22;7873;52.230;12.856;2022-11-15T07:56:23;23.20;46.10
15543;DHT22;7873;52.230;12.856;2022-11-15T07:58:50;23.20;46.10
15543;DHT22;7873;52.230;12.856;2022-11-15T08:01:16;23.20;46.10
15543;DHT22;7873;52.230;12.856;2022-11-15T08:03:43;23.20;46.00
15543;DHT22;7873;52.230;12.856;2022-11-15T08:06:11;23.20;46.10
15543;DHT22;7873;52.230;12.856;2022-11-15T08:08:38;23.20;46.10
15543;DHT22;7873;52.230;12.856;2022-11-15T08:11:05;23.20;46.10
15543;DHT22;7873;52.230;12.856;2022-11-15T08:13:32;23.20;46.10
15543;DHT22;7873;52.230;12.856;2022-11-15T08:15:58;23.20;46.00
15543;DHT22;7873;52.230;12.856;2022-11-15T08:18:25;23.20;46.10
15543;DHT22;7873;52.230;12.856;2022-11-15T08:20:52;23.10;46.10
15543;DHT22;7873;52.230;12.856;2022-11-15T08:23:20;23.10;46.10
15543;DHT22;7873;52.230;12.856;2022-11-15T08:25:47;23.10;46.10
15543;DHT22;7873;52.230;12.856;2022-11-15T08:28:15;23.10;46.10
15543;DHT22;7873;52.230;12.856;2022-11-15T08:30:42;23.10;46.20
15543;DHT22;7873;52.230;12.856;2022-11-15T08:33:10;23.10;46.10
15543;DHT22;7873;52.230;12.856;2022-11-15T08:35:38;23.10;46.20
15543;DHT22;7873;52.230;12.856;2022-11-15T08:38:05;23.10;46.20
15543;DHT22;7873;52.230;12.856;2022-11-15T08:40:33;23.10;46.20
15543;DHT22;7873;52.230;12.856;2022-11-15T08:43:00;23.10;46.20
15543;DHT22;7873;52.230;12.856;2022-11-15T08:45:27;23.10;46.20
15543;DHT22;7873;52.230;12.856;2022-11-15T08:47:54;23.10;46.30
15543;DHT22;7873;52.230;12.856;2022-11-15T08:50:21;23.10;47.00
15543;DHT22;7873;52.230;12.856;2022-11-15T08:52:49;23.00;46.20
15543;DHT22;7873;52.230;12.856;2022-11-15T08:55:15;23.00;46.20
15543;DHT22;7873;52.230;12.856;2022-11-15T08:57:44;23.00;46.20
15543;DHT22;7873;52.230;12.856;2022-11-15T09:00:11;23.00;46.20
15543;DHT22;7873;52.230;12.856;2022-11-15T09:02:39;23.00;46.20
15543;DHT22;7873;52.230;12.856;2022-11-15T09:05:07;23.00;46.30
15543;DHT22;7873;52.230;12.856;2022-11-15T09:07:34;23.00;46.30
15543;DHT22;7873;52.230;12.856;2022-11-15T09:10:01;23.00;46.30
15543;DHT22;7873;52.230;12.856;2022-11-15T09:12:27;23.00;46.30
15543;DHT22;7873;52.230;12.856;2022-11-15T09:14:55;23.00;46.20
15543;DHT22;7873;52.230;12.856;2022-11-15T09:17:23;23.00;46.20
15543;DHT22;7873;52.230;12.856;2022-11-15T09:19:49;22.90;46.30
15543;DHT22;7873;52.230;12.856;2022-11-15T09:22:16;23.00;46.30
15543;DHT22;7873;52.230;12.856;2022-11-15T09:24:43;23.00;46.20
15543;DHT22;7873;52.230;12.856;2022-11-15T09:27:09;23.00;46.40
15543;DHT22;7873;52.230;12.856;2022-11-15T09:29:36;23.00;46.40
15543;DHT22;7873;52.230;12.856;2022-11-15T09:32:05;23.00;47.20
15543;DHT22;7873;52.230;12.856;2022-11-15T09:34:31;22.90;46.30
15543;DHT22;7873;52.230;12.856;2022-11-15T09:36:58;23.00;46.30
15543;DHT22;7873;52.230;12.856;2022-11-15T09:39:25;22.90;46.30
15543;DHT22;7873;52.230;12.856;2022-11-15T09:41:59;22.90;46.40
15543;DHT22;7873;52.230;12.856;2022-11-15T09:44:44;22.90;46.50
15543;DHT22;7873;52.230;12.856;2022-11-15T09:50:12;22.90;47.10
15543;DHT22;7873;52.230;12.856;2022-11-15T09:52:42;22.90;46.40
15543;DHT22;7873;52.230;12.856;2022-11-15T09:55:11;22.90;46.40
15543;DHT22;7873;52.230;12.856;2022-11-15T09:57:48;22.80;46.40
15543;DHT22;7873;52.230;12.856;2022-11-15T10:00:21;22.80;46.40
15543;DHT22;7873;52.230;12.856;2022-11-15T10:02:57;22.80;46.40
15543;DHT22;7873;52.230;12.856;2022-11-15T10:05:36;22.80;46.40
15543;DHT22;7873;52.230;12.856;2022-11-15T10:08:06;22.90;47.20
15543;DHT22;7873;52.230;12.856;2022-11-15T10:10:44;22.80;46.30
15543;DHT22;7873;52.230;12.856;2022-11-15T10:13:13;22.80;46.40
15543;DHT22;7873;52.230;12.856;2022-11-15T10:15:46;22.80;46.40
15543;DHT22;7873;52.230;12.856;2022-11-15T10:18:16;22.80;46.50
15543;DHT22;7873;52.230;12.856;2022-11-15T10:20:48;22.80;46.50
15543;DHT22;7873;52.230;12.856;2022-11-15T10:23:17;22.80;46.50
15543;DHT22;7873;52.230;12.856;2022-11-15T10:25:45;22.80;46.50
15543;DHT22;7873;52.230;12.856;2022-11-15T10:28:16;22.80;46.50
15543;DHT22;7873;52.230;12.856;2022-11-15T10:30:47;22.80;46.50
15543;DHT22;7873;52.230;12.856;2022-11-15T10:33:25;22.80;46.50
15543;DHT22;7873;52.230;12.856;2022-11-15T10:36:15;22.80;46.60
15543;DHT22;7873;52.230;12.856;2022-11-15T10:38:51;22.80;46.60
15543;DHT22;7873;52.230;12.856;2022-11-15T10:41:31;22.80;46.60
15543;DHT22;7873;52.230;12.856;2022-11-15T10:44:06;22.80;46.60
15543;DHT22;7873;52.230;12.856;2022-11-15T10:46:38;22.70;46.60
15543;DHT22;7873;52.230;12.856;2022-11-15T10:49:13;22.70;46.60
15543;DHT22;7873;52.230;12.856;2022-11-15T10:51:41;22.70;46.60
15543;DHT22;7873;52.230;12.856;2022-11-15T10:54:11;22.70;46.60
15543;DHT22;7873;52.230;12.856;2022-11-15T10:56:38;22.70;46.60
15543;DHT22;7873;52.230;12.856;2022-11-15T10:59:07;22.70;46.60
15543;DHT22;7873;52.230;12.856;2022-11-15T11:01:45;22.70;46.60
15543;DHT22;7873;52.230;12.856;2022-11-15T11:04:14;22.70;46.50
15543;DHT22;7873;52.230;12.856;2022-11-15T11:06:47;22.80;46.50
15543;DHT22;7873;52.230;12.856;2022-11-15T11:09:23;22.80;46.40
15543;DHT22;7873;52.230;12.856;2022-11-15T11:11:55;22.80;46.40
15543;DHT22;7873;52.230;12.856;2022-11-15T11:14:22;22.80;46.40
15543;DHT22;7873;52.230;12.856;2022-11-15T11:16:53;22.80;46.40
15543;DHT22;7873;52.230;12.856;2022-11-15T11:22:13;22.80;46.30
15543;DHT22;7873;52.230;12.856;2022-11-15T11:24:47;22.80;46.30
15543;DHT22;7873;52.230;12.856;2022-11-15T11:27:24;22.80;46.30
15543;DHT22;7873;52.230;12.856;2022-11-15T11:30:02;22.80;46.30
15543;DHT22;7873;52.230;12.856;2022-11-15T11:32:39;22.80;46.40
15543;DHT22;7873;52.230;12.856;2022-11-15T11:35:17;22.90;46.30
15543;DHT22;7873;52.230;12.856;2022-11-15T11:37:49;22.90;46.30
15543;DHT22;7873;52.230;12.856;2022-11-15T11:40:24;22.90;46.30
15543;DHT22;7873;52.230;12.856;2022-11-15T11:42:57;22.80;46.30
15543;DHT22;7873;52.230;12.856;2022-11-15T11:45:44;22.90;46.30
15543;DHT22;7873;52.230;12.856;2022-11-15T11:48:21;22.80;46.30
15543;DHT22;7873;52.230;12.856;2022-11-15T11:51:00;22.90;46.30
15543;DHT22;7873;52.230;12.856;2022-11-15T11:53:35;22.90;46.30
15543;DHT22;7873;52.230;12.856;2022-11-15T11:56:11;22.80;46.20
15543;DHT22;7873;52.230;12.856;2022-11-15T11:58:44;22.80;46.10
15543;DHT22;7873;52.230;12.856;2022-11-15T12:01:14;22.80;46.20
15543;DHT22;7873;52.230;12.856;2022-11-15T12:03:45;22.80;46.10
15543;DHT22;7873;52.230;12.856;2022-11-15T12:06:17;22.90;46.90
15543;DHT22;7873;52.230;12.856;2022-11-15T12:08:50;22.90;46.10
15543;DHT22;7873;52.230;12.856;2022-11-15T12:11:21;22.90;46.10
15543;DHT22;7873;52.230;12.856;2022-11-15T12:13:56;23.00;46.10
15543;DHT22;7873;52.230;12.856;2022-11-15T12:16:27;22.90;46.00
15543;DHT22;7873;52.230;12.856;2022-11-15T12:18:56;22.90;46.00
15543;DHT22;7873;52.230;12.856;2022-11-15T12:21:29;23.00;46.00
15543;DHT22;7873;52.230;12.856;2022-11-15T12:24:01;23.00;45.90
15543;DHT22;7873;52.230;12.856;2022-11-15T12:26:32;23.00;45.80
15543;DHT22;7873;52.230;12.856;2022-11-15T12:29:04;23.10;45.80
15543;DHT22;7873;52.230;12.856;2022-11-15T12:31:36;23.10;45.80
15543;DHT22;7873;52.230;12.856;2022-11-15T12:34:13;23.10;45.70
15543;DHT22;7873;52.230;12.856;2022-11-15T12:36:56;23.10;45.60
15543;DHT22;7873;52.230;12.856;2022-11-15T12:42:38;23.20;45.40
15543;DHT22;7873;52.230;12.856;2022-11-15T12:47:52;23.30;45.20
15543;DHT22;7873;52.230;12.856;2022-11-15T12:53:27;23.30;45.30
15543;DHT22;7873;52.230;12.856;2022-11-15T12:58:48;23.20;45.20
15543;DHT22;7873;52.230;12.856;2022-11-15T13:04:22;23.20;45.40
15543;DHT22;7873;52.230;12.856;2022-11-15T13:06:51;23.20;45.40
15543;DHT22;7873;52.230;12.856;2022-11-15T13:18:30;23.50;45.20
15543;DHT22;7873;52.230;12.856;2022-11-15T13:21:01;23.50;45.00
15543;DHT22;7873;52.230;12.856;2022-11-15T13:23:52;23.50;45.00
15543;DHT22;7873;52.230;12.856;2022-11-15T13:26:21;23.50;45.00
15543;DHT22;7873;52.230;12.856;2022-11-15T13:28:49;23.50;45.00
15543;DHT22;7873;52.230;12.856;2022-11-15T13:31:27;23.50;45.00
15543;DHT22;7873;52.230;12.856;2022-11-15T13:33:57;23.50;45.00
15543;DHT22;7873;52.230;12.856;2022-11-15T13:36:27;23.50;45.10
15543;DHT22;7873;52.230;12.856;2022-11-15T13:38:59;23.40;45.30
15543;DHT22;7873;52.230;12.856;2022-11-15T13:41:30;23.40;45.30
15543;DHT22;7873;52.230;12.856;2022-11-15T13:43:59;23.30;45.30
15543;DHT22;7873;52.230;12.856;2022-11-15T13:46:27;23.30;45.40
15543;DHT22;7873;52.230;12.856;2022-11-15T13:48:55;23.30;45.50
15543;DHT22;7873;52.230;12.856;2022-11-15T13:51:30;23.30;45.60
15543;DHT22;7873;52.230;12.856;2022-11-15T13:54:02;23.20;45.50
15543;DHT22;7873;52.230;12.856;2022-11-15T13:56:35;23.20;45.50
15543;DHT22;7873;52.230;12.856;2022-11-15T13:59:08;23.20;45.50
15543;DHT22;7873;52.230;12.856;2022-11-15T14:01:35;23.20;45.50
15543;DHT22;7873;52.230;12.856;2022-11-15T14:04:03;23.20;45.60
15543;DHT22;7873;52.230;12.856;2022-11-15T14:06:30;23.20;45.60
15543;DHT22;7873;52.230;12.856;2022-11-15T14:08:58;23.20;45.70
15543;DHT22;7873;52.230;12.856;2022-11-15T14:11:50;23.10;45.70
15543;DHT22;7873;52.230;12.856;2022-11-15T14:14:19;23.10;45.70
15543;DHT22;7873;52.230;12.856;2022-11-15T14:16:48;23.10;45.80
15543;DHT22;7873;52.230;12.856;2022-11-15T14:22:16;23.00;45.90
15543;DHT22;7873;52.230;12.856;2022-11-15T14:24:47;23.00;46.00
15543;DHT22;7873;52.230;12.856;2022-11-15T14:27:32;23.00;46.10
15543;DHT22;7873;52.230;12.856;2022-11-15T14:29:59;22.90;46.00
15543;DHT22;7873;52.230;12.856;2022-11-15T14:32:27;22.90;46.10
15543;DHT22;7873;52.230;12.856;2022-11-15T14:34:56;22.90;46.10
15543;DHT22;7873;52.230;12.856;2022-11-15T14:37:24;22.90;46.20
15543;DHT22;7873;52.230;12.856;2022-11-15T14:39:52;22.90;46.20
15543;DHT22;7873;52.230;12.856;2022-11-15T14:42:20;22.80;46.20
15543;DHT22;7873;52.230;12.856;2022-11-15T14:44:49;22.90;46.30
15543;DHT22;7873;52.230;12.856;2022-11-15T14:47:15;22.90;46.30
15543;DHT22;7873;52.230;12.856;2022-11-15T14:49:42;22.90;46.30
15543;DHT22;7873;52.230;12.856;2022-11-15T14:52:25;22.90;46.30
15543;DHT22;7873;52.230;12.856;2022-11-15T14:54:54;22.90;46.30
15543;DHT22;7873;52.230;12.856;2022-11-15T14:57:21;22.80;46.20
15543;DHT22;7873;52.230;12.856;2022-11-15T14:59:49;22.80;46.20
15543;DHT22;7873;52.230;12.856;2022-11-15T15:02:17;22.80;46.30
15543;DHT22;7873;52.230;12.856;2022-11-15T15:04:45;22.80;46.40
15543;DHT22;7873;52.230;12.856;2022-11-15T15:07:12;22.80;46.40
15543;DHT22;7873;52.230;12.856;2022-11-15T15:09:39;22.70;46.40
15543;DHT22;7873;52.230;12.856;2022-11-15T15:12:09;22.70;46.50
15543;DHT22;7873;52.230;12.856;2022-11-15T15:14:44;22.70;46.60
15543;DHT22;7873;52.230;12.856;2022-11-15T15:17:12;22.70;46.60
15543;DHT22;7873;52.230;12.856;2022-11-15T15:19:39;22.80;46.30
15543;DHT22;7873;52.230;12.856;2022-11-15T15:22:08;22.70;45.40
15543;DHT22;7873;52.230;12.856;2022-11-15T15:24:39;22.50;45.00
15543;DHT22;7873;52.230;12.856;2022-11-15T15:27:05;22.20;45.20
15543;DHT22;7873;52.230;12.856;2022-11-15T15:29:32;22.30;46.10
15543;DHT22;7873;52.230;12.856;2022-11-15T15:31:59;22.40;45.60
15543;DHT22;7873;52.230;12.856;2022-11-15T15:34:27;22.60;43.30
15543;DHT22;7873;52.230;12.856;2022-11-15T15:37:06;22.30;42.90
15543;DHT22;7873;52.230;12.856;2022-11-15T15:39:33;21.90;43.90
15543;DHT22;7873;52.230;12.856;2022-11-15T15:42:00;21.60;44.00
15543;DHT22;7873;52.230;12.856;2022-11-15T15:44:27;21.30;45.80
15543;DHT22;7873;52.230;12.856;2022-11-15T15:46:53;21.40;45.70
15543;DHT22;7873;52.230;12.856;2022-11-15T15:49:20;21.70;45.80
15543;DHT22;7873;52.230;12.856;2022-11-15T15:51:48;22.10;45.30
15543;DHT22;7873;52.230;12.856;2022-11-15T15:54:15;22.40;45.00
15543;DHT22;7873;52.230;12.856;2022-11-15T15:56:41;22.60;44.80
15543;DHT22;7873;52.230;12.856;2022-11-15T15:59:08;22.90;44.30
15543;DHT22;7873;52.230;12.856;2022-11-15T16:01:35;23.00;43.60
15543;DHT22;7873;52.230;12.856;2022-11-15T16:04:01;23.10;43.80
15543;DHT22;7873;52.230;12.856;2022-11-15T16:06:35;23.20;43.80
15543;DHT22;7873;52.230;12.856;2022-11-15T16:09:05;23.40;43.50
15543;DHT22;7873;52.230;12.856;2022-11-15T16:11:34;23.60;42.90
15543;DHT22;7873;52.230;12.856;2022-11-15T16:14:01;23.80;41.90
15543;DHT22;7873;52.230;12.856;2022-11-15T16:16:28;24.20;42.60
15543;DHT22;7873;52.230;12.856;2022-11-15T16:18:55;24.60;41.80